CA-0485 weather

CLOSED De Lesseps Field
Toronto, Ontario, Canada

Public forecast

Using degrees Celsius for public forecast. Weather courtesy of forecast.io.

Closest aviation weather report (METAR) to De Lesseps Field

Closest report is Lester B. Pearson International Airport, 6.0 nm (11.1 km) WSW. Retrieved 2019/10/14 14:00 UTC (17 minutes ago):

CYYZ 141400Z 26008KT 200V280 15SM FEW025 SCT062 08/01 A2995 RMK CF1SC2 SLP145

Closest aviation forecast (TAF) to De Lesseps Field

Closest forecast is Lester B. Pearson International Airport, 6.0 nm (11.1 km) WSW. Retrieved 2019/10/14 15:42 UTC (0 seconds ago):

TAF CYYZ 141438Z 1415/1518 26008KT P6SM FEW025 SCT060 BECMG 1415/1417 26013G23KT FM142200 25012G22KT P6SM SCT040 FM150000 27012KT P6SM FEW050 FM151400 19012KT P6SM FEW030 RMK NXT FCST BY 141800Z